Time;durP1;ratioP1;P1;durP2;ratioP2;P2;SDS_P1;SDS_P2;PMS_P1;PMS_P2;Temp;Humidity;BMP_temperature;BMP_pressure;BME280_temperature;BME280_humidity;BME280_pressure;Samples;Min_cycle;Max_cycle;Signal;HPM_P1;HPM_P2
2022/04/28 00:00:43;;;;;;;3.90;1.10;;;;;;;;;;5106949;28;20110;-68
2022/04/28 00:03:14;;;;;;;3.07;1.53;;;;;;;;;;5106966;28;20023;-69
2022/04/28 00:05:53;;;;;;;3.47;1.37;;;;;;;;;;5089934;28;20414;-68
2022/04/28 00:08:24;;;;;;;4.63;1.53;;;;;;;;;;5112289;28;20027;-69
2022/04/28 00:11:08;;;;;;;2.63;0.87;;;;;;;;;;5111693;28;20035;-68
2022/04/28 00:13:45;;;;;;;2.73;1.10;;;;;;;;;;5111868;28;20024;-69
2022/04/28 00:16:16;;;;;;;2.97;1.40;;;;;;;;;;5112318;28;20028;-68
2022/04/28 00:18:53;;;;;;;4.30;0.93;;;;;;;;;;5109617;28;20236;-68
2022/04/28 00:21:25;;;;;;;6.13;2.00;;;;;;;;;;5107509;28;20016;-69
2022/04/28 00:23:56;;;;;;;1.97;0.87;;;;;;;;;;5107041;28;20539;-69
2022/04/28 00:26:30;;;;;;;5.23;1.60;;;;;;;;;;5110502;28;20453;-68
2022/04/28 00:29:03;;;;;;;3.50;1.42;;;;;;;;;;5113890;28;20028;-68
2022/04/28 00:31:43;;;;;;;4.17;1.50;;;;;;;;;;5115005;28;20023;-69
2022/04/28 00:34:17;;;;;;;1.67;0.70;;;;;;;;;;5116192;28;20027;-69
2022/04/28 00:36:51;;;;;;;3.30;0.95;;;;;;;;;;5095590;28;20017;-69
2022/04/28 00:39:26;;;;;;;1.42;0.75;;;;;;;;;;5096093;28;20436;-69
2022/04/28 00:42:00;;;;;;;1.77;0.63;;;;;;;;;;5105291;28;20077;-69
2022/04/28 00:44:32;;;;;;;;;;;;;;;;;;5111785;28;20103;-69
2022/04/28 00:47:08;;;;;;;1.63;0.70;;;;;;;;;;5111021;28;19918;-69
2022/04/28 00:52:34;;;;;;;1.37;0.70;;;;;;;;;;5114826;28;20039;-69
2022/04/28 00:55:03;;;;;;;2.03;0.70;;;;;;;;;;5116024;28;20023;-69
2022/04/28 00:57:36;;;;;;;2.33;0.60;;;;;;;;;;5115574;28;20119;-69
2022/04/28 01:00:13;;;;;;;1.83;0.73;;;;;;;;;;5115736;28;20027;-69
2022/04/28 01:02:47;;;;;;;0.60;0.50;;;;;;;;;;5115343;28;20031;-69
2022/04/28 01:05:17;;;;;;;1.57;0.53;;;;;;;;;;5110476;28;20031;-69
2022/04/28 01:07:48;;;;;;;0.63;0.50;;;;;;;;;;5110551;28;20038;-69
2022/04/28 01:10:22;;;;;;;1.37;0.63;;;;;;;;;;5110358;28;20028;-69
2022/04/28 01:12:53;;;;;;;1.33;0.57;;;;;;;;;;5110835;28;20722;-69
2022/04/28 01:15:25;;;;;;;1.30;0.50;;;;;;;;;;5115571;28;20374;-68
2022/04/28 01:17:56;;;;;;;1.53;0.60;;;;;;;;;;5115298;28;20020;-69
2022/04/28 01:20:27;;;;;;;5.90;0.67;;;;;;;;;;5115056;28;20106;-69
2022/04/28 01:23:05;;;;;;;6.90;0.60;;;;;;;;;;5115223;28;20019;-69
2022/04/28 01:25:39;;;;;;;2.30;0.70;;;;;;;;;;5114890;28;20069;-69
2022/04/28 01:28:13;;;;;;;1.03;0.50;;;;;;;;;;5110510;28;20023;-69
2022/04/28 01:30:44;;;;;;;3.43;1.03;;;;;;;;;;5110133;28;20024;-69
2022/04/28 01:33:18;;;;;;;1.43;0.50;;;;;;;;;;5110203;28;20965;-70
2022/04/28 01:35:55;;;;;;;3.17;0.70;;;;;;;;;;5110223;28;20452;-69
2022/04/28 01:38:29;;;;;;;1.07;0.60;;;;;;;;;;5114244;28;20435;-69
2022/04/28 01:41:03;;;;;;;4.15;0.77;;;;;;;;;;5115128;28;20482;-68
2022/04/28 01:43:46;;;;;;;2.22;0.85;;;;;;;;;;5114816;28;20478;-69
2022/04/28 01:46:23;;;;;;;1.47;0.87;;;;;;;;;;5114796;28;20458;-69
2022/04/28 01:48:55;;;;;;;1.43;0.73;;;;;;;;;;5112751;28;20035;-68
2022/04/28 01:57:00;;;;;;;1.33;0.60;;;;;;;;;;5109802;28;20097;-69
2022/04/28 01:59:31;;;;;;;3.07;0.63;;;;;;;;;;5112444;28;20031;-69
2022/04/28 02:02:09;;;;;;;3.63;1.00;;;;;;;;;;5114813;28;20020;-68
2022/04/28 02:04:42;;;;;;;6.50;0.73;;;;;;;;;;5114713;28;20111;-69
2022/04/28 02:07:16;;;;;;;1.50;0.77;;;;;;;;;;5114149;28;20030;-68
2022/04/28 02:09:50;;;;;;;3.85;0.77;;;;;;;;;;5114318;28;20059;-69
2022/04/28 02:12:28;;;;;;;4.05;0.80;;;;;;;;;;5110625;28;20474;-69
2022/04/28 02:14:59;;;;;;;1.20;0.60;;;;;;;;;;5109678;28;20031;-68
2022/04/28 02:17:37;;;;;;;1.97;0.77;;;;;;;;;;5109361;28;20028;-68
2022/04/28 02:20:11;;;;;;;1.33;0.83;;;;;;;;;;5108724;28;20561;-68
2022/04/28 02:22:43;;;;;;;1.75;0.60;;;;;;;;;;5113462;28;20040;-68
2022/04/28 02:25:16;;;;;;;4.30;0.90;;;;;;;;;;5113924;28;20073;-70
2022/04/28 02:27:45;;;;;;;1.00;0.70;;;;;;;;;;5114115;28;20409;-68
2022/04/28 02:30:16;;;;;;;4.30;0.90;;;;;;;;;;5114052;28;20016;-69
2022/04/28 02:35:41;;;;;;;1.77;1.00;;;;;;;;;;5109088;28;20093;-68
2022/04/28 02:38:17;;;;;;;3.73;0.80;;;;;;;;;;5109300;28;20034;-68
2022/04/28 02:40:49;;;;;;;6.63;0.90;;;;;;;;;;5108999;28;20052;-68
2022/04/28 02:43:23;;;;;;;3.67;1.00;;;;;;;;;;5108467;28;20012;-69
2022/04/28 02:46:00;;;;;;;1.77;0.68;;;;;;;;;;5113835;28;20024;-71
2022/04/28 02:48:32;;;;;;;0.60;0.50;;;;;;;;;;5113598;28;20078;-71
2022/04/28 02:51:13;;;;;;;1.97;0.73;;;;;;;;;;5113682;28;20106;-71
2022/04/28 02:53:46;;;;;;;3.67;1.10;;;;;;;;;;5113635;28;20034;-72
2022/04/28 02:56:17;;;;;;;2.17;0.90;;;;;;;;;;5111676;28;20023;-71
2022/04/28 02:58:51;;;;;;;1.67;0.83;;;;;;;;;;5108571;28;20019;-71
2022/04/28 03:01:26;;;;;;;2.87;1.17;;;;;;;;;;5108546;28;20042;-70
2022/04/28 03:04:10;;;;;;;4.10;1.10;;;;;;;;;;5108427;28;20024;-70
2022/04/28 03:12:21;;;;;;;2.13;0.80;;;;;;;;;;5113215;28;20123;-70
2022/04/28 03:14:52;;;;;;;3.88;0.80;;;;;;;;;;5112872;28;20023;-71
2022/04/28 03:17:26;;;;;;;2.33;0.67;;;;;;;;;;5112167;28;20019;-70
2022/04/28 03:20:00;;;;;;;1.77;0.88;;;;;;;;;;5109621;28;20019;-71
2022/04/28 03:22:36;;;;;;;2.83;0.60;;;;;;;;;;5108383;28;20050;-71
2022/04/28 03:25:09;;;;;;;2.13;0.80;;;;;;;;;;5108223;28;20016;-71
2022/04/28 03:27:52;;;;;;;1.37;0.77;;;;;;;;;;5108132;28;20066;-71
2022/04/28 03:30:29;;;;;;;4.57;0.97;;;;;;;;;;5102640;28;20425;-66
2022/04/28 03:33:00;;;;;;;3.43;1.03;;;;;;;;;;5112723;28;20016;-69
2022/04/28 03:35:34;;;;;;;1.97;1.10;;;;;;;;;;5112785;28;20048;-69
2022/04/28 03:38:14;;;;;;;4.32;1.55;;;;;;;;;;5112731;28;20041;-69
2022/04/28 03:40:45;;;;;;;4.20;1.00;;;;;;;;;;5112485;28;20024;-65
2022/04/28 03:43:14;;;;;;;3.70;1.23;;;;;;;;;;5107820;28;20027;-66
2022/04/28 03:45:52;;;;;;;2.83;1.03;;;;;;;;;;5107990;28;20511;-69
2022/04/28 03:48:30;;;;;;;2.63;1.10;;;;;;;;;;5101277;27;20085;-69
2022/04/28 03:50:59;;;;;;;3.83;1.40;;;;;;;;;;5100286;28;20023;-69
2022/04/28 03:53:30;;;;;;;3.07;1.17;;;;;;;;;;5112100;28;20038;-69
2022/04/28 03:56:04;;;;;;;3.37;1.17;;;;;;;;;;5112601;28;20401;-69
2022/04/28 03:58:39;;;;;;;3.77;1.10;;;;;;;;;;5112336;28;20042;-69
2022/04/28 04:01:16;;;;;;;1.90;1.00;;;;;;;;;;5111840;28;20099;-69
2022/04/28 04:03:47;;;;;;;2.17;1.00;;;;;;;;;;5111052;28;20051;-70
2022/04/28 04:06:21;;;;;;;1.77;0.90;;;;;;;;;;5107499;28;20095;-72
2022/04/28 04:08:50;;;;;;;1.85;0.77;;;;;;;;;;5107690;28;20054;-68
2022/04/28 04:11:26;;;;;;;3.17;1.03;;;;;;;;;;5106885;28;20099;-70
2022/04/28 04:13:55;;;;;;;2.53;0.90;;;;;;;;;;5106185;28;20023;-71
2022/04/28 04:16:23;;;;;;;3.43;1.10;;;;;;;;;;5110457;28;20107;-70
2022/04/28 04:18:54;;;;;;;3.93;1.10;;;;;;;;;;5112238;28;20034;-71
2022/04/28 04:21:24;;;;;;;2.50;1.13;;;;;;;;;;5111945;28;20042;-70
2022/04/28 04:23:54;;;;;;;5.47;2.30;;;;;;;;;;5112460;28;20034;-71
2022/04/28 04:26:26;;;;;;;2.37;1.03;;;;;;;;;;5110660;28;20040;-76
2022/04/28 04:29:00;;;;;;;2.53;0.90;;;;;;;;;;5107191;28;20076;-70
2022/04/28 04:34:23;;;;;;;3.00;1.00;;;;;;;;;;5107361;28;20039;-71
2022/04/28 04:37:02;;;;;;;4.27;1.40;;;;;;;;;;5108884;28;20467;-71
2022/04/28 04:39:48;;;;;;;2.13;0.93;;;;;;;;;;5112053;28;20028;-70
2022/04/28 04:42:19;;;;;;;1.97;1.10;;;;;;;;;;5111787;28;20478;-71
2022/04/28 04:44:50;;;;;;;3.37;1.07;;;;;;;;;;5111656;28;20068;-70
2022/04/28 04:47:21;;;;;;;2.43;1.17;;;;;;;;;;5111864;28;20072;-71
2022/04/28 04:49:53;;;;;;;3.00;1.00;;;;;;;;;;5108771;28;20023;-70
2022/04/28 04:52:29;;;;;;;1.30;0.90;;;;;;;;;;5107084;28;20019;-70
2022/04/28 04:55:09;;;;;;;3.90;1.20;;;;;;;;;;5106619;28;20424;-71
2022/04/28 04:57:41;;;;;;;2.67;0.97;;;;;;;;;;5107084;28;20042;-72
2022/04/28 05:00:11;;;;;;;2.67;0.97;;;;;;;;;;5110687;28;20035;-71
2022/04/28 05:02:42;;;;;;;3.00;1.37;;;;;;;;;;5111413;28;20373;-73
2022/04/28 05:05:13;;;;;;;7.00;1.63;;;;;;;;;;5111751;28;20026;-71
2022/04/28 05:07:50;;;;;;;2.13;1.00;;;;;;;;;;5091601;28;20028;-71
2022/04/28 05:10:24;;;;;;;3.20;1.07;;;;;;;;;;5091376;28;20528;-68
2022/04/28 05:12:59;;;;;;;1.37;1.00;;;;;;;;;;5089094;28;20528;-69
2022/04/28 05:15:36;;;;;;;2.75;0.98;;;;;;;;;;5090548;28;20055;-69
2022/04/28 05:18:14;;;;;;;1.70;1.00;;;;;;;;;;5099914;28;20028;-69
2022/04/28 05:20:45;;;;;;;3.07;1.20;;;;;;;;;;5110832;28;20016;-69
2022/04/28 05:23:20;;;;;;;2.47;1.23;;;;;;;;;;5114952;28;20101;-69
2022/04/28 05:25:59;;;;;;;7.03;1.60;;;;;;;;;;5115394;28;20040;-68
2022/04/28 05:28:42;;;;;;;3.83;1.70;;;;;;;;;;5115393;28;20023;-69
2022/04/28 05:31:14;;;;;;;5.97;1.40;;;;;;;;;;5114829;28;20016;-69
2022/04/28 05:33:48;;;;;;;3.53;1.23;;;;;;;;;;5114453;28;20490;-68
2022/04/28 05:36:26;;;;;;;5.22;1.83;;;;;;;;;;5110431;28;20020;-69
2022/04/28 05:39:03;;;;;;;3.10;1.47;;;;;;;;;;5110208;28;20024;-69
2022/04/28 05:41:37;;;;;;;2.43;1.20;;;;;;;;;;5109619;28;20078;-68
2022/04/28 05:46:54;;;;;;;1.63;0.90;;;;;;;;;;5110342;28;20177;-68
2022/04/28 05:49:21;;;;;;;3.23;1.10;;;;;;;;;;5114923;28;20117;-74
2022/04/28 05:51:48;;;;;;;2.93;1.30;;;;;;;;;;5114499;28;20015;-68
2022/04/28 05:54:16;;;;;;;3.30;1.20;;;;;;;;;;5114724;28;20027;-69
2022/04/28 05:56:43;;;;;;;2.20;1.30;;;;;;;;;;5111447;28;20016;-69
2022/04/28 05:59:12;;;;;;;2.37;1.10;;;;;;;;;;5109737;28;20478;-68
2022/04/28 06:01:39;;;;;;;9.87;1.67;;;;;;;;;;5110095;28;20063;-68
2022/04/28 06:04:06;;;;;;;2.37;1.10;;;;;;;;;;5109683;28;20153;-69
2022/04/28 06:06:33;;;;;;;5.47;2.10;;;;;;;;;;5110697;28;20034;-69
2022/04/28 06:08:59;;;;;;;4.03;1.40;;;;;;;;;;5113945;28;20020;-69
2022/04/28 06:11:26;;;;;;;2.73;1.43;;;;;;;;;;5114461;28;20515;-69
2022/04/28 06:13:53;;;;;;;4.90;1.17;;;;;;;;;;5114493;28;20082;-68
2022/04/28 06:16:19;;;;;;;2.73;1.30;;;;;;;;;;5114268;28;20051;-68
2022/04/28 06:18:46;;;;;;;3.60;1.27;;;;;;;;;;5113188;28;20027;-68
2022/04/28 06:21:13;;;;;;;4.93;1.40;;;;;;;;;;5109579;28;20047;-69
2022/04/28 06:23:39;;;;;;;3.63;1.33;;;;;;;;;;5108906;28;20023;-69
2022/04/28 06:26:06;;;;;;;3.53;1.60;;;;;;;;;;5109615;28;20069;-68
2022/04/28 06:28:33;;;;;;;4.90;1.47;;;;;;;;;;5108158;28;20507;-72
2022/04/28 06:30:59;;;;;;;3.30;1.20;;;;;;;;;;5114088;28;20381;-68
2022/04/28 06:33:26;;;;;;;4.27;1.47;;;;;;;;;;5114242;28;20073;-69
2022/04/28 06:35:54;;;;;;;2.87;1.20;;;;;;;;;;5114022;28;20103;-68
2022/04/28 06:38:21;;;;;;;3.97;1.40;;;;;;;;;;5113756;28;20300;-68
2022/04/28 06:40:47;;;;;;;3.43;1.23;;;;;;;;;;5113843;28;20039;-68
2022/04/28 06:43:14;;;;;;;4.37;1.53;;;;;;;;;;5108989;28;20102;-68
2022/04/28 06:46:11;;;;;;;3.00;1.13;;;;;;;;;;5108619;28;20008;-69
2022/04/28 06:48:27;;;;;;;11.17;1.20;;;;;;;;;;5108459;28;20051;-69
2022/04/28 06:50:54;;;;;;;2.90;1.20;;;;;;;;;;5108415;28;20088;-68
2022/04/28 06:53:20;;;;;;;2.53;1.13;;;;;;;;;;5113440;28;20028;-68
2022/04/28 06:55:47;;;;;;;5.37;1.57;;;;;;;;;;5113623;28;20024;-68
2022/04/28 06:58:15;;;;;;;3.80;1.20;;;;;;;;;;5113755;28;20076;-68
2022/04/28 07:00:41;;;;;;;3.17;1.37;;;;;;;;;;5113539;28;20492;-69
2022/04/28 07:03:08;;;;;;;4.00;1.50;;;;;;;;;;5112710;28;20398;-72
2022/04/28 07:05:35;;;;;;;3.67;1.33;;;;;;;;;;5108818;28;20102;-68
2022/04/28 07:08:03;;;;;;;2.40;1.10;;;;;;;;;;5108518;28;20069;-68
2022/04/28 07:10:30;;;;;;;3.27;1.27;;;;;;;;;;5108375;28;20027;-69
2022/04/28 07:12:57;;;;;;;3.03;1.37;;;;;;;;;;5108342;28;20020;-68
2022/04/28 07:15:23;;;;;;;4.07;1.60;;;;;;;;;;5111816;28;20424;-68
2022/04/28 07:17:50;;;;;;;4.07;1.00;;;;;;;;;;5113156;28;20031;-68
2022/04/28 07:20:17;;;;;;;2.53;0.97;;;;;;;;;;5113034;28;20020;-68
2022/04/28 07:22:44;;;;;;;3.87;1.10;;;;;;;;;;5113141;28;20030;-73
2022/04/28 07:25:10;;;;;;;1.93;1.00;;;;;;;;;;5113013;28;20077;-69
2022/04/28 07:27:37;;;;;;;2.53;1.00;;;;;;;;;;5108609;28;20063;-68
2022/04/28 07:30:04;;;;;;;1.60;1.00;;;;;;;;;;5108022;28;20378;-68
2022/04/28 07:32:33;;;;;;;3.93;1.00;;;;;;;;;;5107942;28;20026;-68
2022/04/28 07:34:59;;;;;;;1.83;0.90;;;;;;;;;;5107396;28;20027;-68
2022/04/28 07:37:26;;;;;;;2.47;1.00;;;;;;;;;;5110272;28;20020;-68
2022/04/28 07:39:53;;;;;;;1.13;0.67;;;;;;;;;;5112612;28;20030;-68
2022/04/28 07:42:19;;;;;;;2.33;1.10;;;;;;;;;;5112267;28;20027;-74
2022/04/28 07:44:46;;;;;;;4.50;1.70;;;;;;;;;;5112787;28;20023;-68
2022/04/28 07:47:13;;;;;;;2.60;1.30;;;;;;;;;;5112599;28;20035;-68
2022/04/28 07:49:39;;;;;;;2.20;1.10;;;;;;;;;;5109388;28;20031;-69
2022/04/28 07:52:06;;;;;;;5.90;1.53;;;;;;;;;;5107895;28;20027;-68
2022/04/28 07:54:33;;;;;;;3.27;1.10;;;;;;;;;;5107790;28;20030;-68
2022/04/28 07:57:00;;;;;;;4.70;1.73;;;;;;;;;;5107787;28;20048;-68
2022/04/28 07:59:26;;;;;;;9.50;2.13;;;;;;;;;;5109479;28;20012;-68
2022/04/28 08:01:53;;;;;;;3.33;1.80;;;;;;;;;;5111841;28;20027;-73
2022/04/28 08:04:20;;;;;;;2.73;1.10;;;;;;;;;;5112479;28;20028;-68
2022/04/28 08:06:46;;;;;;;3.17;1.20;;;;;;;;;;5112460;28;20838;-68
2022/04/28 08:09:13;;;;;;;2.83;0.93;;;;;;;;;;5112573;28;20038;-68
2022/04/28 08:11:41;;;;;;;3.00;1.50;;;;;;;;;;5109853;28;20102;-69
2022/04/28 08:14:08;;;;;;;1.43;0.80;;;;;;;;;;5106937;28;20019;-70
2022/04/28 08:16:35;;;;;;;2.60;1.03;;;;;;;;;;5107445;28;20027;-68
2022/04/28 08:19:02;;;;;;;1.93;0.93;;;;;;;;;;5107287;28;20373;-68
2022/04/28 08:21:29;;;;;;;2.63;1.17;;;;;;;;;;5108197;28;20051;-73
2022/04/28 08:23:57;;;;;;;3.50;1.00;;;;;;;;;;5111882;28;20058;-68
2022/04/28 08:26:24;;;;;;;1.70;0.73;;;;;;;;;;5112457;28;20454;-68
2022/04/28 08:28:50;;;;;;;2.30;0.90;;;;;;;;;;5112035;28;20043;-68
2022/04/28 08:31:17;;;;;;;2.93;0.80;;;;;;;;;;5112393;28;20024;-68
2022/04/28 08:33:43;;;;;;;2.80;1.03;;;;;;;;;;5110880;28;20047;-68
2022/04/28 08:36:12;;;;;;;5.67;1.10;;;;;;;;;;5106891;28;20057;-68
2022/04/28 08:38:39;;;;;;;36.87;2.37;;;;;;;;;;5107312;28;20020;-68
2022/04/28 08:41:09;;;;;;;7.17;1.33;;;;;;;;;;5106678;28;20055;-68
2022/04/28 08:43:37;;;;;;;2.33;1.07;;;;;;;;;;5107459;28;20102;-67
2022/04/28 08:48:55;;;;;;;3.83;1.37;;;;;;;;;;5115388;28;20253;-68
2022/04/28 08:51:25;;;;;;;2.67;1.20;;;;;;;;;;5111528;28;20019;-68
2022/04/28 08:53:52;;;;;;;3.53;0.90;;;;;;;;;;5116117;28;20114;-68
2022/04/28 08:56:20;;;;;;;2.93;0.97;;;;;;;;;;5114883;28;20038;-68
2022/04/28 08:58:47;;;;;;;5.17;1.27;;;;;;;;;;5111135;28;20475;-68
2022/04/28 09:01:14;;;;;;;2.37;1.03;;;;;;;;;;5110567;28;20076;-68
2022/04/28 09:03:41;;;;;;;3.47;0.97;;;;;;;;;;5110879;28;20055;-68
2022/04/28 09:06:29;;;;;;;2.37;1.00;;;;;;;;;;5111105;28;20089;-73
2022/04/28 09:08:56;;;;;;;1.57;0.87;;;;;;;;;;5115473;28;20028;-68
2022/04/28 09:11:24;;;;;;;1.03;0.57;;;;;;;;;;5115491;28;20047;-68
2022/04/28 09:14:14;;;;;;;0.97;0.70;;;;;;;;;;5115398;28;20023;-68
2022/04/28 09:16:49;;;;;;;2.83;0.87;;;;;;;;;;5115693;28;20027;-69
2022/04/28 09:19:26;;;;;;;1.85;1.10;;;;;;;;;;5113221;28;20023;-68
2022/04/28 09:21:54;;;;;;;2.13;0.93;;;;;;;;;;5110433;28;20050;-68
2022/04/28 09:24:22;;;;;;;6.73;1.23;;;;;;;;;;5110434;28;20102;-68
2022/04/28 09:26:49;;;;;;;3.97;1.33;;;;;;;;;;5090147;28;20024;-68
2022/04/28 09:29:17;;;;;;;2.77;1.23;;;;;;;;;;5091670;28;20069;-69
2022/04/28 09:31:45;;;;;;;7.07;2.20;;;;;;;;;;5094537;28;20103;-73
2022/04/28 09:34:11;;;;;;;3.10;1.07;;;;;;;;;;5095004;28;20411;-68
2022/04/28 09:36:39;;;;;;;1.87;0.77;;;;;;;;;;5094868;28;20338;-72
2022/04/28 09:39:06;;;;;;;3.73;1.40;;;;;;;;;;5114907;28;20077;-67
2022/04/28 09:44:21;;;;;;;4.13;2.27;;;;;;;;;;5109978;28;20089;-72
2022/04/28 09:46:48;;;;;;;6.60;2.33;;;;;;;;;;5091583;28;20421;-68
2022/04/28 09:49:20;;;;;;;7.97;1.90;;;;;;;;;;5109659;28;20072;-69
2022/04/28 09:51:46;;;;;;;4.60;1.90;;;;;;;;;;5111695;28;20047;-69
2022/04/28 09:54:14;;;;;;;4.17;1.40;;;;;;;;;;5114969;28;20028;-68
2022/04/28 09:56:42;;;;;;;3.57;1.37;;;;;;;;;;5114738;28;20256;-69
2022/04/28 09:59:11;;;;;;;3.50;1.20;;;;;;;;;;5113988;28;20397;-69
2022/04/28 10:01:38;;;;;;;3.00;1.17;;;;;;;;;;5113974;28;20073;-72
2022/04/28 10:04:06;;;;;;;3.80;1.10;;;;;;;;;;5112755;28;20256;-69
2022/04/28 10:06:36;;;;;;;2.97;1.13;;;;;;;;;;5109805;28;20813;-69
2022/04/28 10:09:05;;;;;;;2.67;0.87;;;;;;;;;;5109802;28;20276;-68
2022/04/28 10:11:32;;;;;;;2.53;1.00;;;;;;;;;;5109683;28;20260;-68
2022/04/28 10:14:02;;;;;;;1.80;0.80;;;;;;;;;;5110230;28;20263;-68
2022/04/28 10:16:28;;;;;;;2.00;0.87;;;;;;;;;;5114388;28;20288;-68
2022/04/28 10:18:58;;;;;;;5.73;1.43;;;;;;;;;;5114092;28;20386;-69
2022/04/28 10:21:29;;;;;;;4.23;1.00;;;;;;;;;;5114449;28;20595;-68
2022/04/28 10:32:47;;;;;;;1.10;0.70;;;;;;;;;;5109537;28;20093;-68
2022/04/28 10:35:14;;;;;;;3.17;1.13;;;;;;;;;;5109118;28;20288;-68
2022/04/28 10:37:42;;;;;;;2.27;0.97;;;;;;;;;;5112384;28;20060;-68
2022/04/28 10:40:22;;;;;;;3.13;1.00;;;;;;;;;;5114192;28;20256;-68
2022/04/28 10:42:49;;;;;;;1.67;0.80;;;;;;;;;;5113789;28;20337;-68
2022/04/28 10:45:19;;;;;;;3.27;0.80;;;;;;;;;;5113681;28;20252;-68
2022/04/28 10:47:46;;;;;;;2.37;0.97;;;;;;;;;;5113480;28;20284;-69
2022/04/28 10:50:23;;;;;;;2.63;1.20;;;;;;;;;;5108720;28;20268;-69
2022/04/28 10:52:56;;;;;;;2.07;1.03;;;;;;;;;;5108818;28;20260;-68
2022/04/28 10:55:23;;;;;;;1.53;1.00;;;;;;;;;;5108555;28;20260;-68
2022/04/28 10:57:50;;;;;;;1.83;0.90;;;;;;;;;;5108741;28;20271;-68
2022/04/28 11:00:43;;;;;;;4.43;1.50;;;;;;;;;;5112431;28;20268;-72
2022/04/28 11:03:10;;;;;;;2.30;1.00;;;;;;;;;;5109001;28;20279;-69
2022/04/28 11:05:40;;;;;;;2.10;1.00;;;;;;;;;;5113475;28;20630;-68
2022/04/28 11:08:09;;;;;;;4.77;1.33;;;;;;;;;;5113463;28;20279;-68
2022/04/28 11:10:56;;;;;;;2.00;0.90;;;;;;;;;;5112254;28;20264;-68
2022/04/28 11:13:24;;;;;;;1.33;0.90;;;;;;;;;;5108114;28;20288;-68
2022/04/28 11:15:51;;;;;;;2.80;0.80;;;;;;;;;;5108088;28;20283;-68
2022/04/28 11:18:18;;;;;;;4.10;1.10;;;;;;;;;;5108271;28;20252;-68
2022/04/28 11:20:45;;;;;;;2.43;0.77;;;;;;;;;;5108208;28;20635;-68
2022/04/28 11:23:11;;;;;;;3.73;0.80;;;;;;;;;;5113137;28;20260;-68
2022/04/28 11:25:38;;;;;;;1.80;0.90;;;;;;;;;;5112627;28;20744;-70
2022/04/28 11:28:09;;;;;;;2.60;0.97;;;;;;;;;;5112506;28;20288;-69
2022/04/28 11:30:36;;;;;;;1.83;1.10;;;;;;;;;;5113154;28;20264;-68
2022/04/28 11:33:02;;;;;;;3.10;1.40;;;;;;;;;;5112949;28;20280;-68
2022/04/28 11:35:31;;;;;;;3.63;1.33;;;;;;;;;;5108012;28;20761;-68
2022/04/28 11:37:57;;;;;;;1.57;0.77;;;;;;;;;;5107600;28;20264;-68
2022/04/28 11:40:24;;;;;;;4.80;1.00;;;;;;;;;;5107727;28;20331;-69
2022/04/28 11:43:01;;;;;;;2.30;0.93;;;;;;;;;;5107406;28;20778;-70
2022/04/28 11:45:31;;;;;;;3.10;1.10;;;;;;;;;;5112121;28;20677;-68
2022/04/28 11:48:00;;;;;;;1.97;1.17;;;;;;;;;;5112597;28;20682;-68
2022/04/28 11:50:35;;;;;;;2.37;0.93;;;;;;;;;;5112211;28;20749;-68
2022/04/28 11:53:05;;;;;;;1.27;0.73;;;;;;;;;;5112791;28;20256;-68
2022/04/28 11:55:38;;;;;;;5.33;1.20;;;;;;;;;;5111886;28;20053;-69
2022/04/28 11:58:08;;;;;;;3.67;1.13;;;;;;;;;;5107737;28;20266;-68
2022/04/28 12:00:38;;;;;;;3.00;1.00;;;;;;;;;;5107767;28;20295;-68
2022/04/28 12:03:05;;;;;;;3.10;1.13;;;;;;;;;;5107403;28;20292;-68
2022/04/28 12:05:33;;;;;;;3.43;1.93;;;;;;;;;;5107207;28;20321;-69
2022/04/28 12:07:59;;;;;;;4.23;1.73;;;;;;;;;;5112231;28;20295;-68
2022/04/28 12:16:07;;;;;;;4.43;2.53;;;;;;;;;;5112120;28;20650;-68
2022/04/28 12:21:22;;;;;;;2.78;1.58;;;;;;;;;;5106963;28;20267;-68
2022/04/28 12:23:50;;;;;;;3.63;1.80;;;;;;;;;;5107169;28;20035;-68
2022/04/28 12:26:18;;;;;;;7.33;2.00;;;;;;;;;;5107395;28;20256;-68
2022/04/28 12:28:45;;;;;;;7.20;1.90;;;;;;;;;;5108631;28;20756;-68
2022/04/28 12:31:13;;;;;;;8.50;2.10;;;;;;;;;;5111103;28;20618;-68
2022/04/28 12:33:41;;;;;;;7.53;1.90;;;;;;;;;;5112275;28;20256;-68
2022/04/28 12:36:16;;;;;;;5.03;1.90;;;;;;;;;;5112082;28;20254;-70
2022/04/28 12:38:48;;;;;;;4.35;2.17;;;;;;;;;;5112211;28;20276;-68
2022/04/28 12:41:27;;;;;;;6.17;2.07;;;;;;;;;;5109641;28;20026;-68
2022/04/28 12:43:57;;;;;;;4.63;2.40;;;;;;;;;;5107105;28;20821;-68
2022/04/28 12:46:32;;;;;;;6.23;2.67;;;;;;;;;;5107057;28;20264;-68
2022/04/28 12:49:03;;;;;;;9.43;4.63;;;;;;;;;;5107003;28;20386;-68
2022/04/28 12:51:30;;;;;;;7.53;4.77;;;;;;;;;;5109207;28;20489;-68
2022/04/28 12:54:17;;;;;;;7.07;3.60;;;;;;;;;;5110933;28;20287;-68
2022/04/28 12:56:46;;;;;;;7.57;3.17;;;;;;;;;;5094923;28;20294;-68
2022/04/28 12:59:18;;;;;;;9.20;4.90;;;;;;;;;;5112172;28;20252;-68
2022/04/28 13:01:46;;;;;;;9.00;4.90;;;;;;;;;;5111830;28;20278;-68
2022/04/28 13:04:15;;;;;;;7.13;4.20;;;;;;;;;;5108632;28;20275;-69
2022/04/28 13:06:44;;;;;;;8.37;3.37;;;;;;;;;;5106849;28;20256;-69
2022/04/28 13:09:11;;;;;;;6.53;3.57;;;;;;;;;;5106585;28;20329;-69
2022/04/28 13:11:39;;;;;;;5.33;3.10;;;;;;;;;;5088897;28;20627;-69
2022/04/28 13:14:06;;;;;;;5.33;2.70;;;;;;;;;;5109291;28;20770;-68
2022/04/28 13:16:41;;;;;;;4.23;2.50;;;;;;;;;;5111692;28;20034;-71
2022/04/28 13:19:16;;;;;;;4.95;2.65;;;;;;;;;;5111351;28;20016;-69
2022/04/28 13:21:45;;;;;;;7.28;2.97;;;;;;;;;;5111513;28;20024;-70
2022/04/28 13:24:17;;;;;;;11.97;3.10;;;;;;;;;;5111644;28;20491;-69
2022/04/28 13:26:48;;;;;;;15.13;3.90;;;;;;;;;;5108485;28;20587;-69
2022/04/28 13:29:22;;;;;;;10.37;3.77;;;;;;;;;;5106526;28;20055;-69
2022/04/28 13:31:53;;;;;;;12.13;4.40;;;;;;;;;;5106810;28;20027;-69
2022/04/28 13:34:24;;;;;;;12.87;3.90;;;;;;;;;;5109402;28;20381;-70
2022/04/28 13:36:54;;;;;;;8.73;3.37;;;;;;;;;;5112980;28;20479;-69
2022/04/28 13:39:25;;;;;;;10.80;3.60;;;;;;;;;;5115134;28;20028;-69
2022/04/28 13:42:03;;;;;;;10.27;3.87;;;;;;;;;;5114526;28;20024;-69
2022/04/28 13:44:37;;;;;;;11.73;4.70;;;;;;;;;;5114070;28;20020;-69
2022/04/28 13:47:11;;;;;;;12.17;4.03;;;;;;;;;;5114187;28;20031;-69
2022/04/28 13:49:42;;;;;;;9.80;3.53;;;;;;;;;;5110857;28;20749;-70
2022/04/28 13:52:14;;;;;;;11.87;3.57;;;;;;;;;;5109508;28;20030;-69
2022/04/28 13:54:45;;;;;;;8.13;2.80;;;;;;;;;;5109532;28;20027;-69
2022/04/28 13:57:19;;;;;;;7.53;3.10;;;;;;;;;;5109495;28;20093;-69
2022/04/28 13:59:47;;;;;;;7.27;2.20;;;;;;;;;;5113385;28;20026;-70
2022/04/28 14:02:18;;;;;;;12.43;2.67;;;;;;;;;;5113387;28;20028;-70
2022/04/28 14:04:55;;;;;;;6.20;2.60;;;;;;;;;;5114656;28;20015;-70
2022/04/28 14:07:26;;;;;;;4.67;2.20;;;;;;;;;;5114766;28;20470;-69
2022/04/28 14:09:57;;;;;;;6.57;2.30;;;;;;;;;;5114460;28;20039;-69
2022/04/28 14:12:29;;;;;;;4.67;2.10;;;;;;;;;;5109013;28;20027;-70
2022/04/28 14:15:07;;;;;;;4.70;2.23;;;;;;;;;;5109095;28;20027;-70
2022/04/28 14:17:46;;;;;;;7.90;2.33;;;;;;;;;;5108069;28;20022;-70
2022/04/28 14:20:17;;;;;;;4.73;2.03;;;;;;;;;;5109025;28;20019;-70
2022/04/28 14:22:56;;;;;;;4.83;2.07;;;;;;;;;;5113813;28;20016;-70
2022/04/28 14:25:27;;;;;;;3.93;1.80;;;;;;;;;;5113696;28;20089;-70
2022/04/28 14:28:06;;;;;;;4.83;2.03;;;;;;;;;;5114244;28;20035;-70
2022/04/28 14:30:38;;;;;;;2.87;1.60;;;;;;;;;;5113840;28;20382;-70
2022/04/28 14:33:09;;;;;;;3.03;1.40;;;;;;;;;;5112353;28;20444;-70
2022/04/28 14:35:40;;;;;;;2.60;1.40;;;;;;;;;;5108974;28;20081;-70
2022/04/28 14:38:12;;;;;;;3.60;1.47;;;;;;;;;;5108076;28;20039;-69
2022/04/28 14:40:44;;;;;;;4.97;1.53;;;;;;;;;;5108816;28;20058;-71
2022/04/28 14:43:15;;;;;;;3.40;1.40;;;;;;;;;;5109783;28;20085;-70
2022/04/28 14:45:53;;;;;;;4.53;2.23;;;;;;;;;;5112862;28;20835;-71
2022/04/28 14:48:30;;;;;;;4.27;2.10;;;;;;;;;;5113527;28;20074;-70
2022/04/28 14:54:04;;;;;;;9.10;2.47;;;;;;;;;;5113705;28;20038;-70
2022/04/28 14:56:35;;;;;;;5.32;2.50;;;;;;;;;;5110180;28;20031;-70
2022/04/28 14:59:06;;;;;;;7.03;2.30;;;;;;;;;;5108069;28;20034;-70
2022/04/28 15:01:38;;;;;;;5.50;2.13;;;;;;;;;;5107719;28;20074;-70
2022/04/28 15:04:09;;;;;;;8.40;2.67;;;;;;;;;;5107968;28;20150;-70
2022/04/28 15:06:43;;;;;;;5.27;2.67;;;;;;;;;;5111020;28;20098;-70
2022/04/28 15:09:14;;;;;;;5.70;2.50;;;;;;;;;;5112994;28;20031;-71
2022/04/28 15:11:45;;;;;;;9.37;2.30;;;;;;;;;;5112952;28;20028;-70
2022/04/28 15:14:24;;;;;;;7.37;2.37;;;;;;;;;;5113182;28;20466;-71
2022/04/28 15:17:02;;;;;;;6.37;2.27;;;;;;;;;;5113272;28;20019;-71
2022/04/28 15:19:33;;;;;;;5.90;2.60;;;;;;;;;;5108704;28;20084;-70
2022/04/28 15:22:11;;;;;;;4.40;1.90;;;;;;;;;;5108097;28;20020;-70
2022/04/28 15:24:45;;;;;;;6.43;2.20;;;;;;;;;;5087521;28;20047;-71
2022/04/28 15:27:16;;;;;;;4.17;1.87;;;;;;;;;;5097886;28;20467;-70
2022/04/28 15:29:46;;;;;;;3.07;1.87;;;;;;;;;;5091933;28;20020;-70
2022/04/28 15:32:18;;;;;;;3.23;1.67;;;;;;;;;;5105510;28;20599;-70
2022/04/28 15:34:57;;;;;;;9.07;1.70;;;;;;;;;;5112730;28;20029;-71
2022/04/28 15:37:28;;;;;;;3.75;1.75;;;;;;;;;;5112551;28;20011;-70
2022/04/28 15:39:59;;;;;;;3.42;1.65;;;;;;;;;;5111869;28;20042;-70
2022/04/28 15:42:28;;;;;;;3.72;1.77;;;;;;;;;;5106529;28;20481;-70
2022/04/28 15:45:02;;;;;;;4.28;1.60;;;;;;;;;;5107523;28;20316;-70
2022/04/28 15:47:33;;;;;;;3.15;1.63;;;;;;;;;;5107441;28;20047;-70
2022/04/28 15:50:00;;;;;;;4.03;1.20;;;;;;;;;;5106667;28;20035;-71
2022/04/28 15:52:30;;;;;;;3.72;1.75;;;;;;;;;;5112190;28;20026;-70
2022/04/28 15:55:01;;;;;;;2.67;1.50;;;;;;;;;;5112397;28;20377;-70